createdAt,value
2024-04-10T00:00:26.826Z,14.99
2024-04-10T00:02:53.948Z,14.94
2024-04-10T00:05:21.439Z,14.98
2024-04-10T00:07:52.005Z,14.86
2024-04-10T00:10:19.490Z,14.71
2024-04-10T00:12:47.019Z,14.56
2024-04-10T00:15:15.206Z,14.54
2024-04-10T00:17:42.775Z,14.71
2024-04-10T00:20:10.278Z,14.82
2024-04-10T00:22:37.615Z,14.97
2024-04-10T00:25:05.153Z,14.87
2024-04-10T00:27:32.732Z,14.61
2024-04-10T00:29:59.933Z,14.40
2024-04-10T00:32:27.725Z,14.37
2024-04-10T00:34:54.983Z,14.45
2024-04-10T00:37:22.302Z,14.51
2024-04-10T00:39:49.517Z,14.21
2024-04-10T00:42:16.645Z,13.98
2024-04-10T00:44:52.110Z,13.84
2024-04-10T00:47:20.524Z,14.00
2024-04-10T00:49:48.255Z,14.13
2024-04-10T00:52:15.691Z,14.28
2024-04-10T00:54:44.346Z,14.11
2024-04-10T00:57:11.592Z,13.96
2024-04-10T00:59:39.101Z,13.86
2024-04-10T01:02:06.635Z,14.03
2024-04-10T01:04:34.241Z,14.18
2024-04-10T01:07:07.293Z,14.29
2024-04-10T01:09:34.634Z,14.17
2024-04-10T01:12:01.910Z,14.06
2024-04-10T01:14:29.541Z,13.89
2024-04-10T01:16:57.022Z,13.88
2024-04-10T01:19:24.528Z,13.99
2024-04-10T01:21:51.724Z,14.19
2024-04-10T01:24:18.947Z,14.26
2024-04-10T01:26:46.216Z,14.31
2024-04-10T01:29:13.407Z,14.43
2024-04-10T01:31:41.022Z,14.51
2024-04-10T01:34:08.350Z,14.55
2024-04-10T01:36:35.632Z,14.59
2024-04-10T01:39:02.893Z,14.64
2024-04-10T01:41:30.285Z,14.67
2024-04-10T01:43:57.984Z,14.63
2024-04-10T01:46:25.132Z,14.66
2024-04-10T01:48:52.548Z,14.70
2024-04-10T01:51:19.830Z,14.80
2024-04-10T01:53:47.148Z,14.80
2024-04-10T01:56:14.347Z,14.80
2024-04-10T01:58:41.484Z,14.73
2024-04-10T02:01:08.740Z,14.75
2024-04-10T02:03:36.130Z,14.75
2024-04-10T02:06:03.399Z,14.74
2024-04-10T02:08:30.779Z,14.71
2024-04-10T02:11:01.687Z,14.62
2024-04-10T02:13:29.201Z,14.54
2024-04-10T02:15:56.517Z,14.47
2024-04-10T02:18:23.940Z,14.43
2024-04-10T02:21:00.846Z,14.38
2024-04-10T02:23:30.182Z,14.23
2024-04-10T02:25:57.474Z,14.08
2024-04-10T02:28:24.788Z,13.99
2024-04-10T02:30:51.965Z,13.92
2024-04-10T02:33:19.497Z,13.94
2024-04-10T02:35:46.720Z,13.92
2024-04-10T02:38:14.245Z,13.95
2024-04-10T02:40:41.672Z,13.98
2024-04-10T02:43:08.784Z,14.08
2024-04-10T02:45:36.036Z,14.00
2024-04-10T02:48:03.495Z,13.98
2024-04-10T02:50:30.930Z,13.98
2024-04-10T02:52:58.174Z,13.96
2024-04-10T02:55:25.545Z,13.88
2024-04-10T02:57:52.742Z,13.88
2024-04-10T03:00:20.110Z,13.85
2024-04-10T03:02:48.004Z,13.89
2024-04-10T03:05:15.425Z,13.92
2024-04-10T03:07:42.614Z,13.85
2024-04-10T03:10:10.956Z,13.82
2024-04-10T03:12:38.264Z,13.81
2024-04-10T03:15:06.281Z,13.78
2024-04-10T03:17:33.925Z,13.78
2024-04-10T03:20:01.321Z,13.80
2024-04-10T03:22:28.525Z,13.80
2024-04-10T03:24:55.658Z,13.81
2024-04-10T03:27:23.030Z,13.77
2024-04-10T03:29:50.320Z,13.81
2024-04-10T03:32:17.678Z,13.81
2024-04-10T03:34:44.921Z,13.85
2024-04-10T03:37:12.192Z,13.84
2024-04-10T03:39:39.552Z,13.84
2024-04-10T03:42:06.767Z,13.83
2024-04-10T03:44:35.753Z,13.87
2024-04-10T03:47:06.312Z,13.84
2024-04-10T03:49:36.167Z,13.85
2024-04-10T03:52:03.544Z,13.84
2024-04-10T03:54:30.944Z,13.91
2024-04-10T03:56:58.198Z,13.90
2024-04-10T03:59:28.495Z,13.84
2024-04-10T04:01:57.029Z,13.89
2024-04-10T04:04:24.430Z,13.93
2024-04-10T04:06:52.073Z,13.98
2024-04-10T04:09:19.371Z,14.06
2024-04-10T04:11:47.385Z,14.15
2024-04-10T04:14:14.657Z,14.11
2024-04-10T04:16:42.121Z,14.23
2024-04-10T04:19:09.361Z,14.28
2024-04-10T04:21:36.599Z,14.38
2024-04-10T04:24:04.185Z,14.45
2024-04-10T04:26:31.577Z,14.53
2024-04-10T04:28:58.792Z,14.60
2024-04-10T04:31:25.986Z,14.55
2024-04-10T04:33:55.974Z,14.51
2024-04-10T04:36:23.434Z,14.54
2024-04-10T04:38:50.730Z,14.64
2024-04-10T04:41:18.058Z,14.75
2024-04-10T04:43:45.335Z,14.87
2024-04-10T04:46:17.585Z,14.95
2024-04-10T04:48:44.954Z,14.95
2024-04-10T04:51:13.132Z,14.97
2024-04-10T04:53:40.955Z,14.97
2024-04-10T04:56:08.625Z,14.93
2024-04-10T04:58:36.071Z,14.86
2024-04-10T05:01:03.289Z,14.88
2024-04-10T05:03:49.505Z,14.93
2024-04-10T05:06:19.537Z,15.09
2024-04-10T05:08:46.970Z,15.13
2024-04-10T05:11:16.075Z,15.15
2024-04-10T05:13:43.362Z,15.25
2024-04-10T05:16:12.232Z,15.32
2024-04-10T05:18:39.654Z,15.46
2024-04-10T05:21:06.927Z,15.54
2024-04-10T05:23:34.856Z,15.72
2024-04-10T05:26:05.984Z,15.78
2024-04-10T05:28:34.003Z,15.78
2024-04-10T05:31:02.207Z,15.56
2024-04-10T05:33:30.562Z,15.52
2024-04-10T05:36:01.282Z,15.39
2024-04-10T05:38:30.388Z,15.43
2024-04-10T05:40:58.521Z,15.52
2024-04-10T05:43:28.818Z,15.56
2024-04-10T05:45:57.140Z,15.68
2024-04-10T05:48:24.678Z,15.77
2024-04-10T05:51:04.450Z,15.87
2024-04-10T05:53:33.318Z,15.92
2024-04-10T05:56:07.007Z,15.95
2024-04-10T05:58:36.297Z,16.02
2024-04-10T06:01:08.825Z,15.99
2024-04-10T06:03:36.599Z,15.97
2024-04-10T06:06:17.490Z,16.04
2024-04-10T06:08:45.055Z,15.88
2024-04-10T06:11:12.818Z,15.92
2024-04-10T06:13:40.306Z,16.01
2024-04-10T06:16:07.939Z,16.16
2024-04-10T06:18:35.488Z,16.26
2024-04-10T06:21:03.641Z,16.39
2024-04-10T06:23:32.210Z,16.44
2024-04-10T06:25:59.784Z,16.53
2024-04-10T06:28:27.427Z,16.65
2024-04-10T06:31:01.212Z,16.78
2024-04-10T06:33:29.008Z,16.96
2024-04-10T06:36:00.250Z,17.03
2024-04-10T06:38:28.729Z,17.20
2024-04-10T06:40:57.221Z,17.25
2024-04-10T06:43:24.684Z,17.43
2024-04-10T06:46:05.237Z,17.50
2024-04-10T06:48:32.897Z,17.64
2024-04-10T06:51:01.302Z,17.71
2024-04-10T06:53:29.060Z,17.86
2024-04-10T06:56:02.325Z,17.99
2024-04-10T06:58:30.280Z,18.09
2024-04-10T07:01:02.053Z,18.16
2024-04-10T07:03:33.409Z,18.24
2024-04-10T07:06:03.564Z,18.37
2024-04-10T07:08:33.830Z,18.50
2024-04-10T07:11:01.371Z,18.51
2024-04-10T07:13:28.948Z,18.65
2024-04-10T07:16:03.487Z,18.76
2024-04-10T07:18:31.731Z,18.86
2024-04-10T07:20:59.079Z,19.05
2024-04-10T07:23:26.342Z,19.18
2024-04-10T07:25:53.697Z,19.26
2024-04-10T07:28:21.009Z,19.31
2024-04-10T07:30:49.650Z,19.35
2024-04-10T07:33:17.724Z,19.48
2024-04-10T07:35:45.226Z,19.56
2024-04-10T07:38:12.520Z,19.54
2024-04-10T07:40:39.902Z,19.64
2024-04-10T07:43:07.217Z,19.75
2024-04-10T07:45:34.407Z,19.87
2024-04-10T07:48:02.165Z,20.05
2024-04-10T07:50:30.052Z,20.18
2024-04-10T07:53:00.249Z,20.21
2024-04-10T07:55:28.757Z,20.31
2024-04-10T07:57:56.008Z,20.41
2024-04-10T08:00:23.270Z,20.57
2024-04-10T08:02:50.566Z,20.70
2024-04-10T08:05:18.064Z,20.83
2024-04-10T08:07:45.612Z,20.91
2024-04-10T08:10:13.878Z,21.00
2024-04-10T08:12:41.145Z,21.02
2024-04-10T08:15:10.190Z,20.97
2024-04-10T08:17:41.768Z,20.90
2024-04-10T08:20:09.284Z,20.99
2024-04-10T08:22:36.673Z,21.18
2024-04-10T08:25:04.678Z,21.33
2024-04-10T08:27:32.008Z,21.45
2024-04-10T08:29:59.275Z,21.53
2024-04-10T08:32:26.583Z,21.57
2024-04-10T08:34:53.946Z,21.61
2024-04-10T08:37:21.197Z,21.68
2024-04-10T08:39:51.236Z,21.74
2024-04-10T08:42:20.043Z,21.88
2024-04-10T08:44:48.415Z,22.02
2024-04-10T08:47:15.822Z,22.15
2024-04-10T08:49:43.178Z,22.19
2024-04-10T08:52:10.519Z,22.24
2024-04-10T08:54:38.790Z,22.33
2024-04-10T08:57:06.096Z,22.50
2024-04-10T08:59:34.710Z,22.67
2024-04-10T09:02:03.342Z,22.77
2024-04-10T09:04:30.785Z,22.90
2024-04-10T09:07:01.994Z,22.96
2024-04-10T09:09:29.714Z,23.13
2024-04-10T09:11:56.935Z,23.14
2024-04-10T09:14:24.230Z,23.22
2024-04-10T09:16:51.523Z,23.27
2024-04-10T09:19:19.591Z,23.23
2024-04-10T09:21:57.137Z,23.19
2024-04-10T09:24:28.541Z,23.37
2024-04-10T09:26:56.110Z,23.43
2024-04-10T09:29:30.405Z,23.40
2024-04-10T09:32:07.041Z,23.53
2024-04-10T09:34:36.349Z,23.67
2024-04-10T09:37:06.123Z,23.73
2024-04-10T09:39:33.670Z,23.75
2024-04-10T09:42:01.366Z,23.79
2024-04-10T09:44:33.312Z,23.81
2024-04-10T09:47:01.751Z,23.83
2024-04-10T09:49:30.281Z,23.98
2024-04-10T09:51:58.535Z,24.12
2024-04-10T09:54:26.649Z,24.38
2024-04-10T09:56:54.071Z,24.42
2024-04-10T09:59:21.685Z,24.59
2024-04-10T10:01:49.819Z,24.67
2024-04-10T10:04:17.174Z,24.55
2024-04-10T10:06:44.520Z,24.42
2024-04-10T10:09:11.787Z,24.24
2024-04-10T10:11:39.125Z,24.17
2024-04-10T10:14:07.916Z,24.32
2024-04-10T10:16:35.341Z,24.45
2024-04-10T10:19:06.159Z,24.51
2024-04-10T10:21:34.051Z,24.46
2024-04-10T10:24:06.302Z,24.66
2024-04-10T10:26:34.166Z,24.58
2024-04-10T10:29:10.439Z,24.54
2024-04-10T10:31:39.298Z,24.65
2024-04-10T10:34:12.563Z,24.68
2024-04-10T10:36:44.888Z,24.71
2024-04-10T10:39:17.264Z,24.56
2024-04-10T10:41:44.758Z,24.64
2024-04-10T10:44:27.441Z,24.71
2024-04-10T10:46:58.696Z,24.91
2024-04-10T10:49:27.632Z,25.02
2024-04-10T10:51:55.490Z,25.07
2024-04-10T10:54:23.114Z,24.97
2024-04-10T10:56:50.420Z,24.96
2024-04-10T10:59:17.909Z,25.01
2024-04-10T11:01:45.290Z,25.09
2024-04-10T11:04:16.602Z,25.15
2024-04-10T11:06:44.375Z,25.07
2024-04-10T11:09:12.625Z,25.07
2024-04-10T11:11:40.673Z,25.13
2024-04-10T11:14:09.719Z,25.20
2024-04-10T11:16:37.396Z,25.25
2024-04-10T11:19:05.995Z,25.42
2024-04-10T11:21:35.895Z,25.44
2024-04-10T11:24:04.029Z,25.06
2024-04-10T11:26:31.608Z,25.12
2024-04-10T11:28:58.985Z,25.14
2024-04-10T11:31:26.185Z,25.12
2024-04-10T11:33:53.698Z,25.21
2024-04-10T11:36:21.162Z,25.40
2024-04-10T11:38:51.469Z,25.52
2024-04-10T11:41:19.452Z,25.56
2024-04-10T11:43:46.853Z,25.75
2024-04-10T11:46:14.136Z,25.86
2024-04-10T11:48:41.763Z,26.07
2024-04-10T11:51:10.063Z,25.97
2024-04-10T11:53:38.705Z,25.88
2024-04-10T11:56:06.146Z,25.84
2024-04-10T11:58:33.428Z,25.88
2024-04-10T12:01:00.757Z,25.92
2024-04-10T12:03:28.433Z,25.94
2024-04-10T12:05:56.097Z,25.99
2024-04-10T12:08:23.789Z,25.97
2024-04-10T12:10:51.041Z,25.93
2024-04-10T12:13:18.253Z,25.98
2024-04-10T12:15:45.406Z,25.86
2024-04-10T12:18:12.756Z,25.90
2024-04-10T12:20:40.260Z,25.90
2024-04-10T12:23:07.650Z,25.87
2024-04-10T12:25:35.183Z,25.96
2024-04-10T12:28:03.680Z,26.04
2024-04-10T12:30:31.179Z,26.05
2024-04-10T12:35:44.393Z,26.17
2024-04-10T12:38:13.633Z,26.09
2024-04-10T12:40:41.144Z,26.14
2024-04-10T12:43:10.371Z,26.33
2024-04-10T12:45:37.721Z,26.48
2024-04-10T12:48:07.197Z,26.49
2024-04-10T12:50:34.734Z,26.51
2024-04-10T12:53:02.304Z,26.48
2024-04-10T12:55:29.891Z,26.64
2024-04-10T12:57:57.341Z,26.51
2024-04-10T13:00:25.217Z,26.43
2024-04-10T13:02:54.341Z,26.55
2024-04-10T13:05:22.249Z,26.30
2024-04-10T13:07:49.542Z,26.33
2024-04-10T13:10:18.201Z,26.54
2024-04-10T13:12:45.511Z,26.45
2024-04-10T13:15:13.016Z,26.46
2024-04-10T13:17:40.498Z,26.41
2024-04-10T13:20:08.382Z,26.48
2024-04-10T13:22:35.724Z,26.54
2024-04-10T13:25:03.764Z,26.38
2024-04-10T13:27:31.592Z,26.47
2024-04-10T13:29:59.352Z,26.39
2024-04-10T13:32:29.219Z,26.50
2024-04-10T13:34:58.007Z,26.59
2024-04-10T13:37:30.949Z,26.63
2024-04-10T13:40:05.431Z,26.50
2024-04-10T13:42:33.033Z,26.63
2024-04-10T13:45:00.567Z,26.66
2024-04-10T13:47:28.768Z,26.76
2024-04-10T13:49:56.136Z,26.87
2024-04-10T13:52:24.619Z,26.94
2024-04-10T13:54:51.853Z,27.07
2024-04-10T13:57:19.824Z,27.10
2024-04-10T13:59:47.447Z,27.04
2024-04-10T14:02:14.840Z,27.04
2024-04-10T14:04:42.603Z,26.98
2024-04-10T14:07:10.303Z,26.87
2024-04-10T14:09:37.812Z,26.90
2024-04-10T14:12:05.264Z,26.70
2024-04-10T14:14:33.231Z,26.66
2024-04-10T14:17:15.054Z,26.72
2024-04-10T14:19:50.878Z,26.76
2024-04-10T14:22:18.231Z,26.77
2024-04-10T14:24:45.486Z,26.84
2024-04-10T14:27:12.890Z,26.68
2024-04-10T14:29:40.443Z,26.50
2024-04-10T14:32:07.883Z,26.50
2024-04-10T14:34:35.623Z,26.55
2024-04-10T14:37:02.918Z,26.63
2024-04-10T14:39:30.279Z,26.70
2024-04-10T14:41:57.639Z,26.73
2024-04-10T14:44:43.811Z,26.74
2024-04-10T14:47:11.212Z,26.64
2024-04-10T14:49:38.468Z,26.68
2024-04-10T14:52:06.123Z,26.66
2024-04-10T14:54:33.589Z,26.56
2024-04-10T14:57:01.096Z,26.48
2024-04-10T14:59:28.439Z,26.42
2024-04-10T15:01:56.631Z,26.32
2024-04-10T15:04:25.184Z,26.15
2024-04-10T15:06:52.524Z,26.16
2024-04-10T15:09:19.766Z,26.16
2024-04-10T15:11:47.121Z,26.22
2024-04-10T15:14:14.665Z,26.46
2024-04-10T15:16:42.156Z,26.76
2024-04-10T15:19:09.496Z,27.11
2024-04-10T15:21:36.857Z,27.48
2024-04-10T15:24:04.993Z,27.69
2024-04-10T15:26:34.066Z,27.79
2024-04-10T15:29:01.403Z,27.69
2024-04-10T15:31:28.690Z,27.37
2024-04-10T15:33:56.304Z,27.09
2024-04-10T15:36:23.635Z,26.69
2024-04-10T15:38:50.950Z,26.41
2024-04-10T15:41:20.076Z,26.15
2024-04-10T15:43:47.481Z,25.95
2024-04-10T15:46:14.959Z,25.81
2024-04-10T15:48:42.356Z,25.64
2024-04-10T15:51:13.670Z,25.48
2024-04-10T15:53:41.245Z,25.29
2024-04-10T15:56:09.610Z,25.17
2024-04-10T15:58:37.708Z,25.05
2024-04-10T16:01:06.250Z,24.92
2024-04-10T16:03:35.257Z,24.82
2024-04-10T16:06:05.094Z,24.73
2024-04-10T16:08:32.701Z,24.61
2024-04-10T16:11:00.034Z,24.48
2024-04-10T16:13:27.530Z,24.42
2024-04-10T16:16:03.775Z,24.34
2024-04-10T16:18:31.273Z,24.19
2024-04-10T16:21:05.517Z,24.08
2024-04-10T16:23:33.130Z,23.94
2024-04-10T16:26:18.879Z,23.80
2024-04-10T16:28:46.622Z,23.68
2024-04-10T16:31:17.915Z,23.59
2024-04-10T16:33:49.866Z,23.46
2024-04-10T16:36:34.608Z,23.31
2024-04-10T16:39:01.874Z,23.22
2024-04-10T16:41:29.321Z,23.12
2024-04-10T16:43:56.528Z,23.03
2024-04-10T16:46:23.831Z,22.92
2024-04-10T16:48:51.178Z,22.86
2024-04-10T16:51:18.551Z,22.80
2024-04-10T16:53:45.990Z,22.72
2024-04-10T16:56:20.964Z,22.65
2024-04-10T16:58:49.103Z,22.59
2024-04-10T17:01:16.945Z,22.52
2024-04-10T17:03:44.726Z,22.44
2024-04-10T17:07:46.318Z,22.35
2024-04-10T17:10:15.528Z,22.28
2024-04-10T17:12:44.125Z,22.23
2024-04-10T17:15:11.337Z,22.20
2024-04-10T17:17:57.507Z,22.19
2024-04-10T17:20:43.478Z,22.16
2024-04-10T17:23:10.838Z,22.10
2024-04-10T17:25:39.785Z,22.04
2024-04-10T17:28:07.188Z,22.00
2024-04-10T17:30:34.507Z,21.96
2024-04-10T17:33:01.934Z,21.90
2024-04-10T17:35:29.616Z,21.87
2024-04-10T17:37:58.748Z,21.78
2024-04-10T17:40:26.007Z,21.70
2024-04-10T17:42:53.321Z,21.66
2024-04-10T17:45:20.591Z,21.62
2024-04-10T17:47:47.899Z,21.58
2024-04-10T17:50:15.230Z,21.54
2024-04-10T17:52:42.481Z,21.49
2024-04-10T17:55:09.872Z,21.44
2024-04-10T17:57:37.119Z,21.38
2024-04-10T18:00:07.006Z,21.38
2024-04-10T18:02:41.692Z,21.32
2024-04-10T18:05:09.297Z,21.25
2024-04-10T18:07:36.558Z,21.20
2024-04-10T18:10:04.101Z,21.15
2024-04-10T18:12:33.166Z,21.11
2024-04-10T18:15:00.517Z,21.10
2024-04-10T18:17:27.970Z,21.09
2024-04-10T18:19:55.389Z,21.00
2024-04-10T18:22:22.679Z,20.95
2024-04-10T18:24:50.086Z,20.98
2024-04-10T18:27:17.259Z,20.91
2024-04-10T18:29:45.524Z,20.70
2024-04-10T18:32:12.937Z,20.49
2024-04-10T18:34:40.292Z,20.63
2024-04-10T18:37:07.506Z,20.41
2024-04-10T18:39:34.990Z,20.13
2024-04-10T18:42:02.302Z,19.95
2024-04-10T18:44:32.156Z,19.95
2024-04-10T18:47:01.362Z,20.03
2024-04-10T18:49:28.910Z,20.14
2024-04-10T18:51:56.453Z,20.19
2024-04-10T18:54:23.802Z,20.20
2024-04-10T18:56:51.393Z,20.26
2024-04-10T18:59:18.666Z,20.27
2024-04-10T19:01:45.948Z,20.34
2024-04-10T19:04:13.491Z,20.33
2024-04-10T19:06:50.501Z,20.31
2024-04-10T19:09:17.831Z,20.27
2024-04-10T19:11:45.093Z,20.28
2024-04-10T19:14:17.499Z,20.23
2024-04-10T19:16:47.770Z,20.18
2024-04-10T19:19:15.155Z,20.17
2024-04-10T19:21:42.712Z,20.09
2024-04-10T19:24:10.866Z,20.08
2024-04-10T19:26:38.577Z,19.99
2024-04-10T19:29:05.869Z,19.93
2024-04-10T19:31:33.281Z,19.88
2024-04-10T19:34:04.214Z,19.89
2024-04-10T19:36:31.950Z,19.87
2024-04-10T19:39:07.085Z,19.84
2024-04-10T19:41:34.504Z,19.81
2024-04-10T19:44:02.657Z,19.83
2024-04-10T19:46:30.538Z,19.79
2024-04-10T19:48:57.983Z,19.75
2024-04-10T19:51:25.549Z,19.78
2024-04-10T19:53:52.851Z,19.70
2024-04-10T19:56:20.132Z,19.63
2024-04-10T19:58:47.497Z,19.52
2024-04-10T20:01:14.811Z,19.48
2024-04-10T20:03:42.940Z,19.39
2024-04-10T20:06:11.224Z,19.24
2024-04-10T20:08:42.535Z,19.13
2024-04-10T20:11:11.153Z,19.11
2024-04-10T20:13:38.953Z,19.02
2024-04-10T20:16:10.295Z,18.98
2024-04-10T20:18:39.742Z,18.95
2024-04-10T20:21:08.196Z,18.90
2024-04-10T20:23:36.346Z,18.74
2024-04-10T20:26:04.931Z,18.66
2024-04-10T20:28:33.350Z,18.65
2024-04-10T20:31:04.695Z,18.62
2024-04-10T20:33:32.474Z,18.61
2024-04-10T20:36:00.304Z,18.51
2024-04-10T20:38:27.693Z,18.45
2024-04-10T20:40:59.512Z,18.30
2024-04-10T20:43:26.813Z,18.21
2024-04-10T20:45:54.570Z,18.15
2024-04-10T20:48:26.777Z,18.08
2024-04-10T20:50:55.006Z,17.90
2024-04-10T20:53:24.093Z,17.98
2024-04-10T20:56:01.294Z,18.01
2024-04-10T20:58:28.920Z,17.97
2024-04-10T21:01:14.978Z,17.96
2024-04-10T21:03:46.571Z,17.97
2024-04-10T21:06:15.645Z,17.98
2024-04-10T21:09:05.394Z,18.03
2024-04-10T21:11:56.869Z,18.00
2024-04-10T21:14:43.258Z,17.96
2024-04-10T21:17:29.408Z,17.98
2024-04-10T21:20:15.356Z,17.96
2024-04-10T21:23:01.572Z,17.93
2024-04-10T21:25:48.838Z,17.92
2024-04-10T21:28:35.430Z,17.87
2024-04-10T21:31:22.375Z,17.88
2024-04-10T21:34:08.352Z,17.90
2024-04-10T21:36:54.264Z,17.86
2024-04-10T21:39:39.690Z,17.86
2024-04-10T21:42:25.620Z,17.80
2024-04-10T21:45:11.557Z,17.76
2024-04-10T21:47:57.567Z,17.70
2024-04-10T21:50:45.277Z,17.66
2024-04-10T21:53:31.433Z,17.57
2024-04-10T21:56:17.384Z,17.42
2024-04-10T21:59:03.471Z,17.42
2024-04-10T22:02:01.012Z,17.29
2024-04-10T22:04:52.524Z,17.26
2024-04-10T22:07:38.652Z,17.28
2024-04-10T22:10:05.988Z,17.28
2024-04-10T22:12:33.483Z,17.26
2024-04-10T22:15:02.724Z,17.28
2024-04-10T22:17:48.799Z,17.24
2024-04-10T22:20:34.851Z,17.19
2024-04-10T22:23:20.868Z,17.19
2024-04-10T22:25:54.893Z,17.11
2024-04-10T22:28:27.095Z,17.08
2024-04-10T22:30:55.074Z,17.00
2024-04-10T22:33:22.544Z,17.00
2024-04-10T22:35:56.918Z,16.98
2024-04-10T22:38:24.283Z,16.94
2024-04-10T22:40:51.522Z,16.90
2024-04-10T22:43:18.680Z,16.97
2024-04-10T22:45:45.991Z,17.05
2024-04-10T22:48:13.554Z,17.04
2024-04-10T22:50:40.812Z,17.05
2024-04-10T22:53:08.199Z,17.12
2024-04-10T22:55:35.414Z,17.14
2024-04-10T22:58:03.702Z,17.22
2024-04-10T23:00:31.232Z,17.35
2024-04-10T23:02:58.515Z,17.33
2024-04-10T23:05:42.195Z,17.30
2024-04-10T23:08:29.122Z,17.33
2024-04-10T23:10:59.529Z,17.31
2024-04-10T23:13:26.778Z,17.29
2024-04-10T23:15:54.060Z,17.25
2024-04-10T23:18:32.166Z,17.17
2024-04-10T23:21:08.422Z,17.09
2024-04-10T23:23:36.067Z,17.00
2024-04-10T23:26:03.324Z,16.97
2024-04-10T23:28:30.724Z,16.92
2024-04-10T23:30:57.961Z,16.87
2024-04-10T23:33:25.378Z,16.84
2024-04-10T23:35:52.788Z,16.65
2024-04-10T23:38:20.207Z,16.65
2024-04-10T23:40:47.720Z,16.48
2024-04-10T23:43:14.859Z,16.48
2024-04-10T23:45:43.719Z,16.42
2024-04-10T23:48:13.071Z,16.33
2024-04-10T23:50:40.591Z,16.27
2024-04-10T23:53:07.856Z,16.24
2024-04-10T23:55:35.012Z,16.15
2024-04-10T23:58:02.165Z,16.00
